sensor_id;sensor_type;location;lat;lon;timestamp;P1;durP1;ratioP1;P2;durP2;ratioP2
25301;SDS011;13243;50.888;4.724;2023-01-19T00:02:38;27.15;;;13.77;;
25301;SDS011;13243;50.888;4.724;2023-01-19T00:07:40;22.13;;;11.85;;
25301;SDS011;13243;50.888;4.724;2023-01-19T00:12:42;24.92;;;12.45;;
25301;SDS011;13243;50.888;4.724;2023-01-19T00:17:44;23.58;;;12.48;;
25301;SDS011;13243;50.888;4.724;2023-01-19T00:22:45;27.45;;;13.30;;
25301;SDS011;13243;50.888;4.724;2023-01-19T00:27:51;26.90;;;13.45;;
25301;SDS011;13243;50.888;4.724;2023-01-19T00:32:53;22.20;;;11.65;;
25301;SDS011;13243;50.888;4.724;2023-01-19T00:37:55;24.80;;;13.15;;
25301;SDS011;13243;50.888;4.724;2023-01-19T00:42:58;21.83;;;11.98;;
25301;SDS011;13243;50.888;4.724;2023-01-19T00:48:01;36.67;;;13.68;;
25301;SDS011;13243;50.888;4.724;2023-01-19T00:53:03;23.52;;;12.88;;
25301;SDS011;13243;50.888;4.724;2023-01-19T00:58:05;27.40;;;12.50;;
25301;SDS011;13243;50.888;4.724;2023-01-19T01:03:07;24.77;;;12.90;;
25301;SDS011;13243;50.888;4.724;2023-01-19T01:08:10;25.17;;;12.98;;
25301;SDS011;13243;50.888;4.724;2023-01-19T01:13:12;26.27;;;12.93;;
25301;SDS011;13243;50.888;4.724;2023-01-19T01:18:24;27.95;;;13.27;;
25301;SDS011;13243;50.888;4.724;2023-01-19T01:23:26;28.65;;;13.27;;
25301;SDS011;13243;50.888;4.724;2023-01-19T01:28:28;34.47;;;14.23;;
25301;SDS011;13243;50.888;4.724;2023-01-19T01:33:30;26.35;;;12.73;;
25301;SDS011;13243;50.888;4.724;2023-01-19T01:38:41;30.08;;;13.45;;
25301;SDS011;13243;50.888;4.724;2023-01-19T01:43:50;33.22;;;13.40;;
25301;SDS011;13243;50.888;4.724;2023-01-19T01:59:20;21.60;;;12.20;;
25301;SDS011;13243;50.888;4.724;2023-01-19T02:04:26;27.13;;;12.57;;
25301;SDS011;13243;50.888;4.724;2023-01-19T02:09:29;26.92;;;12.50;;
25301;SDS011;13243;50.888;4.724;2023-01-19T02:14:53;26.10;;;13.32;;
25301;SDS011;13243;50.888;4.724;2023-01-19T02:19:55;26.73;;;12.55;;
25301;SDS011;13243;50.888;4.724;2023-01-19T02:24:58;24.77;;;11.35;;
25301;SDS011;13243;50.888;4.724;2023-01-19T02:30:00;27.70;;;11.77;;
25301;SDS011;13243;50.888;4.724;2023-01-19T02:35:04;33.05;;;12.10;;
25301;SDS011;13243;50.888;4.724;2023-01-19T02:40:07;28.20;;;11.93;;
25301;SDS011;13243;50.888;4.724;2023-01-19T02:45:13;23.90;;;11.75;;
25301;SDS011;13243;50.888;4.724;2023-01-19T02:50:53;27.63;;;11.73;;
25301;SDS011;13243;50.888;4.724;2023-01-19T02:55:57;19.85;;;9.95;;
25301;SDS011;13243;50.888;4.724;2023-01-19T03:11:33;21.98;;;11.07;;
25301;SDS011;13243;50.888;4.724;2023-01-19T03:21:56;27.80;;;12.23;;
25301;SDS011;13243;50.888;4.724;2023-01-19T03:27:01;28.08;;;12.13;;
25301;SDS011;13243;50.888;4.724;2023-01-19T03:32:10;31.67;;;12.75;;
25301;SDS011;13243;50.888;4.724;2023-01-19T03:37:16;27.13;;;11.85;;
25301;SDS011;13243;50.888;4.724;2023-01-19T03:42:20;27.77;;;11.85;;
25301;SDS011;13243;50.888;4.724;2023-01-19T03:47:24;26.27;;;11.82;;
25301;SDS011;13243;50.888;4.724;2023-01-19T03:52:26;23.10;;;11.82;;
25301;SDS011;13243;50.888;4.724;2023-01-19T03:57:30;37.90;;;12.65;;
25301;SDS011;13243;50.888;4.724;2023-01-19T04:02:32;26.25;;;10.70;;
25301;SDS011;13243;50.888;4.724;2023-01-19T04:07:34;30.27;;;10.90;;
25301;SDS011;13243;50.888;4.724;2023-01-19T04:12:36;29.20;;;10.75;;
25301;SDS011;13243;50.888;4.724;2023-01-19T04:17:37;21.48;;;11.02;;
25301;SDS011;13243;50.888;4.724;2023-01-19T04:22:40;29.52;;;10.82;;
25301;SDS011;13243;50.888;4.724;2023-01-19T04:27:42;26.75;;;11.07;;
25301;SDS011;13243;50.888;4.724;2023-01-19T04:32:44;23.73;;;11.55;;
25301;SDS011;13243;50.888;4.724;2023-01-19T04:37:47;24.13;;;12.18;;
25301;SDS011;13243;50.888;4.724;2023-01-19T04:42:48;28.67;;;11.75;;
25301;SDS011;13243;50.888;4.724;2023-01-19T04:47:51;30.40;;;12.00;;
25301;SDS011;13243;50.888;4.724;2023-01-19T04:52:53;28.30;;;12.63;;
25301;SDS011;13243;50.888;4.724;2023-01-19T04:57:55;30.80;;;12.48;;
25301;SDS011;13243;50.888;4.724;2023-01-19T05:02:57;26.52;;;12.38;;
25301;SDS011;13243;50.888;4.724;2023-01-19T05:07:59;29.35;;;13.70;;
25301;SDS011;13243;50.888;4.724;2023-01-19T05:13:01;29.70;;;14.18;;
25301;SDS011;13243;50.888;4.724;2023-01-19T05:18:04;39.80;;;14.73;;
25301;SDS011;13243;50.888;4.724;2023-01-19T05:23:06;32.97;;;13.20;;
25301;SDS011;13243;50.888;4.724;2023-01-19T05:28:08;30.92;;;13.15;;
25301;SDS011;13243;50.888;4.724;2023-01-19T05:33:09;36.15;;;13.95;;
25301;SDS011;13243;50.888;4.724;2023-01-19T05:38:11;32.65;;;14.60;;
25301;SDS011;13243;50.888;4.724;2023-01-19T05:43:15;35.65;;;15.70;;
25301;SDS011;13243;50.888;4.724;2023-01-19T05:48:17;36.35;;;15.50;;
25301;SDS011;13243;50.888;4.724;2023-01-19T05:53:19;40.15;;;15.23;;
25301;SDS011;13243;50.888;4.724;2023-01-19T05:58:21;37.88;;;14.68;;
25301;SDS011;13243;50.888;4.724;2023-01-19T06:03:23;38.17;;;17.23;;
25301;SDS011;13243;50.888;4.724;2023-01-19T06:08:25;39.92;;;15.05;;
25301;SDS011;13243;50.888;4.724;2023-01-19T06:13:27;37.47;;;15.27;;
25301;SDS011;13243;50.888;4.724;2023-01-19T06:18:29;33.13;;;15.90;;
25301;SDS011;13243;50.888;4.724;2023-01-19T06:23:31;35.30;;;14.98;;
25301;SDS011;13243;50.888;4.724;2023-01-19T06:28:33;36.25;;;15.60;;
25301;SDS011;13243;50.888;4.724;2023-01-19T06:33:35;40.92;;;16.50;;
25301;SDS011;13243;50.888;4.724;2023-01-19T06:38:37;39.47;;;17.70;;
25301;SDS011;13243;50.888;4.724;2023-01-19T06:43:40;40.10;;;16.10;;
25301;SDS011;13243;50.888;4.724;2023-01-19T06:48:41;42.80;;;16.58;;
25301;SDS011;13243;50.888;4.724;2023-01-19T06:53:43;32.97;;;15.43;;
25301;SDS011;13243;50.888;4.724;2023-01-19T06:58:46;30.58;;;16.10;;
25301;SDS011;13243;50.888;4.724;2023-01-19T07:03:48;36.45;;;15.45;;
25301;SDS011;13243;50.888;4.724;2023-01-19T07:08:50;36.38;;;15.52;;
25301;SDS011;13243;50.888;4.724;2023-01-19T07:13:52;36.92;;;15.35;;
25301;SDS011;13243;50.888;4.724;2023-01-19T07:18:54;40.53;;;15.52;;
25301;SDS011;13243;50.888;4.724;2023-01-19T07:23:56;36.80;;;15.43;;
25301;SDS011;13243;50.888;4.724;2023-01-19T07:28:58;32.72;;;14.93;;
25301;SDS011;13243;50.888;4.724;2023-01-19T07:34:00;35.40;;;15.00;;
25301;SDS011;13243;50.888;4.724;2023-01-19T07:39:02;34.75;;;15.43;;
25301;SDS011;13243;50.888;4.724;2023-01-19T07:44:04;43.60;;;16.13;;
25301;SDS011;13243;50.888;4.724;2023-01-19T07:49:05;39.28;;;16.00;;
25301;SDS011;13243;50.888;4.724;2023-01-19T07:54:08;40.28;;;16.35;;
25301;SDS011;13243;50.888;4.724;2023-01-19T07:59:10;39.92;;;15.05;;
25301;SDS011;13243;50.888;4.724;2023-01-19T08:04:12;42.95;;;16.60;;
25301;SDS011;13243;50.888;4.724;2023-01-19T08:09:14;47.88;;;16.30;;
25301;SDS011;13243;50.888;4.724;2023-01-19T08:14:16;34.13;;;14.45;;
25301;SDS011;13243;50.888;4.724;2023-01-19T08:19:18;48.08;;;17.48;;
25301;SDS011;13243;50.888;4.724;2023-01-19T08:24:20;30.10;;;16.17;;
25301;SDS011;13243;50.888;4.724;2023-01-19T08:29:23;35.40;;;15.65;;
25301;SDS011;13243;50.888;4.724;2023-01-19T08:34:26;43.03;;;15.77;;
25301;SDS011;13243;50.888;4.724;2023-01-19T08:39:28;33.47;;;13.93;;
25301;SDS011;13243;50.888;4.724;2023-01-19T08:44:30;42.35;;;14.48;;
25301;SDS011;13243;50.888;4.724;2023-01-19T08:49:32;48.95;;;16.58;;
25301;SDS011;13243;50.888;4.724;2023-01-19T08:54:33;55.95;;;16.50;;
25301;SDS011;13243;50.888;4.724;2023-01-19T08:59:36;32.13;;;14.88;;
25301;SDS011;13243;50.888;4.724;2023-01-19T09:04:38;37.35;;;14.93;;
25301;SDS011;13243;50.888;4.724;2023-01-19T09:09:40;38.70;;;14.20;;
25301;SDS011;13243;50.888;4.724;2023-01-19T09:14:43;34.92;;;14.63;;
25301;SDS011;13243;50.888;4.724;2023-01-19T09:19:46;34.67;;;14.32;;
25301;SDS011;13243;50.888;4.724;2023-01-19T09:24:48;33.35;;;13.90;;
25301;SDS011;13243;50.888;4.724;2023-01-19T09:29:50;37.17;;;13.95;;
25301;SDS011;13243;50.888;4.724;2023-01-19T09:34:54;38.80;;;14.65;;
25301;SDS011;13243;50.888;4.724;2023-01-19T09:39:57;36.25;;;14.88;;
25301;SDS011;13243;50.888;4.724;2023-01-19T09:44:58;35.45;;;15.63;;
25301;SDS011;13243;50.888;4.724;2023-01-19T09:50:04;34.28;;;14.80;;
25301;SDS011;13243;50.888;4.724;2023-01-19T09:55:18;45.70;;;14.85;;
25301;SDS011;13243;50.888;4.724;2023-01-19T10:00:27;32.25;;;13.32;;
25301;SDS011;13243;50.888;4.724;2023-01-19T10:10:50;30.83;;;12.73;;
25301;SDS011;13243;50.888;4.724;2023-01-19T10:16:08;35.10;;;13.77;;
25301;SDS011;13243;50.888;4.724;2023-01-19T10:21:38;30.52;;;12.90;;
25301;SDS011;13243;50.888;4.724;2023-01-19T10:26:47;35.40;;;12.40;;
25301;SDS011;13243;50.888;4.724;2023-01-19T10:32:07;36.50;;;13.38;;
25301;SDS011;13243;50.888;4.724;2023-01-19T10:37:19;18.00;;;8.48;;
25301;SDS011;13243;50.888;4.724;2023-01-19T10:42:22;25.55;;;11.68;;
25301;SDS011;13243;50.888;4.724;2023-01-19T10:47:27;33.78;;;12.73;;
25301;SDS011;13243;50.888;4.724;2023-01-19T10:52:34;20.95;;;9.13;;
25301;SDS011;13243;50.888;4.724;2023-01-19T10:57:40;31.77;;;11.82;;
25301;SDS011;13243;50.888;4.724;2023-01-19T11:02:48;32.65;;;12.30;;
25301;SDS011;13243;50.888;4.724;2023-01-19T11:07:51;29.98;;;11.27;;
25301;SDS011;13243;50.888;4.724;2023-01-19T11:13:08;27.58;;;10.88;;
25301;SDS011;13243;50.888;4.724;2023-01-19T11:18:29;24.45;;;8.48;;
25301;SDS011;13243;50.888;4.724;2023-01-19T11:28:45;32.60;;;11.73;;
25301;SDS011;13243;50.888;4.724;2023-01-19T11:33:50;34.70;;;11.65;;
25301;SDS011;13243;50.888;4.724;2023-01-19T11:38:54;36.90;;;12.50;;
25301;SDS011;13243;50.888;4.724;2023-01-19T11:44:20;29.08;;;12.85;;
25301;SDS011;13243;50.888;4.724;2023-01-19T11:59:54;38.63;;;13.57;;
25301;SDS011;13243;50.888;4.724;2023-01-19T12:04:59;33.28;;;12.02;;
25301;SDS011;13243;50.888;4.724;2023-01-19T12:15:34;36.08;;;12.82;;
25301;SDS011;13243;50.888;4.724;2023-01-19T12:20:42;34.47;;;13.48;;
25301;SDS011;13243;50.888;4.724;2023-01-19T12:31:32;29.33;;;12.13;;
25301;SDS011;13243;50.888;4.724;2023-01-19T12:36:35;36.10;;;12.88;;
25301;SDS011;13243;50.888;4.724;2023-01-19T12:41:40;30.85;;;12.88;;
25301;SDS011;13243;50.888;4.724;2023-01-19T12:46:53;45.00;;;14.48;;
25301;SDS011;13243;50.888;4.724;2023-01-19T13:03:05;30.80;;;10.53;;
25301;SDS011;13243;50.888;4.724;2023-01-19T13:08:26;27.30;;;12.20;;
25301;SDS011;13243;50.888;4.724;2023-01-19T13:23:55;25.20;;;10.02;;
25301;SDS011;13243;50.888;4.724;2023-01-19T13:34:23;21.30;;;10.90;;
25301;SDS011;13243;50.888;4.724;2023-01-19T13:39:29;28.63;;;11.35;;
25301;SDS011;13243;50.888;4.724;2023-01-19T13:44:39;29.02;;;15.98;;
25301;SDS011;13243;50.888;4.724;2023-01-19T13:49:47;17.75;;;8.65;;
25301;SDS011;13243;50.888;4.724;2023-01-19T14:05:15;20.50;;;8.00;;
25301;SDS011;13243;50.888;4.724;2023-01-19T14:10:22;21.27;;;9.27;;
25301;SDS011;13243;50.888;4.724;2023-01-19T14:15:24;21.35;;;9.20;;
25301;SDS011;13243;50.888;4.724;2023-01-19T14:20:27;22.60;;;9.45;;
25301;SDS011;13243;50.888;4.724;2023-01-19T14:25:33;21.40;;;9.10;;
25301;SDS011;13243;50.888;4.724;2023-01-19T14:30:36;20.58;;;9.65;;
25301;SDS011;13243;50.888;4.724;2023-01-19T14:35:38;24.42;;;9.38;;
25301;SDS011;13243;50.888;4.724;2023-01-19T14:40:40;24.50;;;10.65;;
25301;SDS011;13243;50.888;4.724;2023-01-19T14:45:42;28.92;;;10.57;;
25301;SDS011;13243;50.888;4.724;2023-01-19T14:50:48;26.77;;;9.95;;
25301;SDS011;13243;50.888;4.724;2023-01-19T14:56:04;26.92;;;10.80;;
25301;SDS011;13243;50.888;4.724;2023-01-19T15:01:07;34.13;;;12.45;;
25301;SDS011;13243;50.888;4.724;2023-01-19T15:06:11;27.20;;;12.00;;
25301;SDS011;13243;50.888;4.724;2023-01-19T15:16:25;31.00;;;12.38;;
25301;SDS011;13243;50.888;4.724;2023-01-19T15:21:28;23.15;;;11.00;;
25301;SDS011;13243;50.888;4.724;2023-01-19T15:26:30;26.30;;;10.90;;
25301;SDS011;13243;50.888;4.724;2023-01-19T15:31:32;26.35;;;10.75;;
25301;SDS011;13243;50.888;4.724;2023-01-19T15:36:35;29.75;;;11.20;;
25301;SDS011;13243;50.888;4.724;2023-01-19T15:41:37;31.83;;;12.05;;
25301;SDS011;13243;50.888;4.724;2023-01-19T15:46:40;29.73;;;11.52;;
25301;SDS011;13243;50.888;4.724;2023-01-19T15:51:42;31.60;;;13.23;;
25301;SDS011;13243;50.888;4.724;2023-01-19T15:56:43;41.60;;;13.02;;
25301;SDS011;13243;50.888;4.724;2023-01-19T16:01:45;30.27;;;12.73;;
25301;SDS011;13243;50.888;4.724;2023-01-19T16:06:47;35.08;;;13.25;;
25301;SDS011;13243;50.888;4.724;2023-01-19T16:11:53;30.75;;;13.05;;
25301;SDS011;13243;50.888;4.724;2023-01-19T16:16:57;32.08;;;13.85;;
25301;SDS011;13243;50.888;4.724;2023-01-19T16:22:00;34.88;;;12.98;;
25301;SDS011;13243;50.888;4.724;2023-01-19T16:27:02;34.47;;;13.07;;
25301;SDS011;13243;50.888;4.724;2023-01-19T16:32:04;32.03;;;13.02;;
25301;SDS011;13243;50.888;4.724;2023-01-19T16:37:06;32.17;;;12.90;;
25301;SDS011;13243;50.888;4.724;2023-01-19T16:42:08;31.10;;;13.43;;
25301;SDS011;13243;50.888;4.724;2023-01-19T16:47:09;34.00;;;13.65;;
25301;SDS011;13243;50.888;4.724;2023-01-19T16:52:11;34.13;;;14.50;;
25301;SDS011;13243;50.888;4.724;2023-01-19T16:57:13;30.95;;;15.55;;
25301;SDS011;13243;50.888;4.724;2023-01-19T17:02:15;33.38;;;14.93;;
25301;SDS011;13243;50.888;4.724;2023-01-19T17:07:17;34.10;;;15.27;;
25301;SDS011;13243;50.888;4.724;2023-01-19T17:12:19;37.85;;;16.33;;
25301;SDS011;13243;50.888;4.724;2023-01-19T17:17:21;34.33;;;14.88;;
25301;SDS011;13243;50.888;4.724;2023-01-19T17:22:23;32.22;;;15.65;;
25301;SDS011;13243;50.888;4.724;2023-01-19T17:27:25;38.33;;;15.40;;
25301;SDS011;13243;50.888;4.724;2023-01-19T17:32:27;39.53;;;17.13;;
25301;SDS011;13243;50.888;4.724;2023-01-19T17:37:29;38.08;;;16.58;;
25301;SDS011;13243;50.888;4.724;2023-01-19T17:42:40;45.13;;;15.68;;
25301;SDS011;13243;50.888;4.724;2023-01-19T17:47:42;38.45;;;16.73;;
25301;SDS011;13243;50.888;4.724;2023-01-19T17:52:44;43.15;;;17.15;;
25301;SDS011;13243;50.888;4.724;2023-01-19T17:57:46;36.72;;;16.05;;
25301;SDS011;13243;50.888;4.724;2023-01-19T18:02:48;43.40;;;17.80;;
25301;SDS011;13243;50.888;4.724;2023-01-19T18:07:51;34.70;;;16.50;;
25301;SDS011;13243;50.888;4.724;2023-01-19T18:12:53;44.67;;;17.48;;
25301;SDS011;13243;50.888;4.724;2023-01-19T18:17:55;44.63;;;18.50;;
25301;SDS011;13243;50.888;4.724;2023-01-19T18:22:57;37.03;;;16.25;;
25301;SDS011;13243;50.888;4.724;2023-01-19T18:27:59;37.78;;;15.82;;
25301;SDS011;13243;50.888;4.724;2023-01-19T18:33:01;40.17;;;16.33;;
25301;SDS011;13243;50.888;4.724;2023-01-19T18:38:04;40.38;;;15.90;;
25301;SDS011;13243;50.888;4.724;2023-01-19T18:43:07;40.85;;;15.50;;
25301;SDS011;13243;50.888;4.724;2023-01-19T18:48:09;39.63;;;15.55;;
25301;SDS011;13243;50.888;4.724;2023-01-19T18:53:12;36.03;;;16.27;;
25301;SDS011;13243;50.888;4.724;2023-01-19T18:58:14;32.03;;;14.85;;
25301;SDS011;13243;50.888;4.724;2023-01-19T19:03:16;31.27;;;15.38;;
25301;SDS011;13243;50.888;4.724;2023-01-19T19:08:18;34.00;;;15.48;;
25301;SDS011;13243;50.888;4.724;2023-01-19T19:13:20;35.85;;;16.33;;
25301;SDS011;13243;50.888;4.724;2023-01-19T19:18:23;37.75;;;16.00;;
25301;SDS011;13243;50.888;4.724;2023-01-19T19:23:25;35.42;;;16.83;;
25301;SDS011;13243;50.888;4.724;2023-01-19T19:28:27;36.50;;;17.38;;
25301;SDS011;13243;50.888;4.724;2023-01-19T19:33:29;49.63;;;17.88;;
25301;SDS011;13243;50.888;4.724;2023-01-19T19:38:31;44.20;;;17.48;;
25301;SDS011;13243;50.888;4.724;2023-01-19T19:43:33;40.28;;;18.55;;
25301;SDS011;13243;50.888;4.724;2023-01-19T19:48:36;43.53;;;18.10;;
25301;SDS011;13243;50.888;4.724;2023-01-19T19:53:39;43.65;;;16.80;;
25301;SDS011;13243;50.888;4.724;2023-01-19T19:58:41;41.03;;;17.98;;
25301;SDS011;13243;50.888;4.724;2023-01-19T20:03:43;36.08;;;16.80;;
25301;SDS011;13243;50.888;4.724;2023-01-19T20:08:46;42.17;;;17.33;;
25301;SDS011;13243;50.888;4.724;2023-01-19T20:14:04;44.97;;;17.35;;
25301;SDS011;13243;50.888;4.724;2023-01-19T20:19:07;36.42;;;16.45;;
25301;SDS011;13243;50.888;4.724;2023-01-19T20:24:14;39.10;;;16.80;;
25301;SDS011;13243;50.888;4.724;2023-01-19T20:29:17;34.28;;;14.57;;
25301;SDS011;13243;50.888;4.724;2023-01-19T20:34:21;49.33;;;15.95;;
25301;SDS011;13243;50.888;4.724;2023-01-19T20:39:26;39.15;;;16.10;;
25301;SDS011;13243;50.888;4.724;2023-01-19T20:44:30;42.08;;;17.23;;
25301;SDS011;13243;50.888;4.724;2023-01-19T20:49:32;35.72;;;15.63;;
25301;SDS011;13243;50.888;4.724;2023-01-19T20:54:33;37.53;;;16.40;;
25301;SDS011;13243;50.888;4.724;2023-01-19T20:59:35;36.63;;;15.48;;
25301;SDS011;13243;50.888;4.724;2023-01-19T21:04:38;44.30;;;15.50;;
25301;SDS011;13243;50.888;4.724;2023-01-19T21:09:40;52.33;;;17.50;;
25301;SDS011;13243;50.888;4.724;2023-01-19T21:14:42;42.40;;;17.20;;
25301;SDS011;13243;50.888;4.724;2023-01-19T21:19:46;42.63;;;16.48;;
25301;SDS011;13243;50.888;4.724;2023-01-19T21:24:48;35.40;;;15.48;;
25301;SDS011;13243;50.888;4.724;2023-01-19T21:29:50;42.90;;;16.80;;
25301;SDS011;13243;50.888;4.724;2023-01-19T21:34:52;43.63;;;17.48;;
25301;SDS011;13243;50.888;4.724;2023-01-19T21:39:53;43.92;;;17.70;;
25301;SDS011;13243;50.888;4.724;2023-01-19T21:44:56;40.88;;;16.42;;
25301;SDS011;13243;50.888;4.724;2023-01-19T21:49:58;38.85;;;15.30;;
25301;SDS011;13243;50.888;4.724;2023-01-19T21:55:01;44.63;;;17.70;;
25301;SDS011;13243;50.888;4.724;2023-01-19T22:00:03;38.53;;;15.63;;
25301;SDS011;13243;50.888;4.724;2023-01-19T22:05:06;37.58;;;16.60;;
25301;SDS011;13243;50.888;4.724;2023-01-19T22:10:09;39.83;;;16.95;;
25301;SDS011;13243;50.888;4.724;2023-01-19T22:15:13;42.90;;;17.40;;
25301;SDS011;13243;50.888;4.724;2023-01-19T22:20:15;44.40;;;16.85;;
25301;SDS011;13243;50.888;4.724;2023-01-19T22:25:17;44.33;;;17.33;;
25301;SDS011;13243;50.888;4.724;2023-01-19T22:30:23;50.85;;;18.38;;
25301;SDS011;13243;50.888;4.724;2023-01-19T22:35:25;47.88;;;18.65;;
25301;SDS011;13243;50.888;4.724;2023-01-19T22:40:27;40.22;;;16.10;;
25301;SDS011;13243;50.888;4.724;2023-01-19T22:45:29;52.42;;;17.90;;
25301;SDS011;13243;50.888;4.724;2023-01-19T22:50:31;42.95;;;17.40;;
25301;SDS011;13243;50.888;4.724;2023-01-19T22:55:34;50.65;;;17.75;;
25301;SDS011;13243;50.888;4.724;2023-01-19T23:00:36;42.63;;;16.52;;
25301;SDS011;13243;50.888;4.724;2023-01-19T23:05:38;49.03;;;19.17;;
25301;SDS011;13243;50.888;4.724;2023-01-19T23:10:40;45.28;;;18.08;;
25301;SDS011;13243;50.888;4.724;2023-01-19T23:15:42;46.45;;;18.80;;
25301;SDS011;13243;50.888;4.724;2023-01-19T23:20:44;48.45;;;18.48;;
25301;SDS011;13243;50.888;4.724;2023-01-19T23:25:46;45.03;;;18.48;;
25301;SDS011;13243;50.888;4.724;2023-01-19T23:30:47;42.85;;;17.85;;
25301;SDS011;13243;50.888;4.724;2023-01-19T23:35:49;43.33;;;17.60;;
25301;SDS011;13243;50.888;4.724;2023-01-19T23:40:55;53.38;;;17.17;;
25301;SDS011;13243;50.888;4.724;2023-01-19T23:46:01;44.92;;;17.48;;
25301;SDS011;13243;50.888;4.724;2023-01-19T23:51:06;47.35;;;19.02;;
25301;SDS011;13243;50.888;4.724;2023-01-19T23:56:10;50.47;;;17.42;;
